Accueil
METAR-TAF:

METAR-TAF

Aéroports :

Lee's Summit Municipal Airport

Lee's Summit, Missouri, États-Unis

latitude: 38-57-35N, longitude: 094-22-18W, altitude: 306 m

Observation

Le bulletin a été fait il y a 38 minutes, à 06:53 UTC
Vent 10 kt de sud
Température 2°C
Humidité 87%
Pression 1013 hPa
Visibilité: 9.7 km
Ciel couvert à une hauteur de 500 ft
pluie faible, brume

METAR: KLXT 230653Z AUTO 19010KT 6SM -RA BR OVC005 02/00 A2992 RMK AO2 UPB16E48RAB48 SLP141 P0000 T00170000

Heure: 01:31 (07:31 UTC)


TAF: absent

Observations et prévisions météorologiques de plus de 4000 aéroports (messages METAR et TAF).

Les stations disponibles sont représentées par des disques jaunes et rouges sur la carte.

Passer la souris dessus pour voir le nom de la station.

Cliquer dessus pour voir les observations et prévisions météorologiques.

Pour changer de carte: cliquez sur les boutons verts avec une croix noire pour zoomer, sur le bouton vert avec un tiret pour effectuer un zoom arrière, ou sur les flèches vertes pour les cartes adjacentes.


METAR-TAF: